sensor_id;sensor_type;location;lat;lon;timestamp;P1;durP1;ratioP1;P2;durP2;ratioP2
11064;SDS011;5585;52.530;7.320;2023-08-21T00:00:55;3.58;;;1.40;;
11064;SDS011;5585;52.530;7.320;2023-08-21T00:03:22;2.47;;;1.15;;
11064;SDS011;5585;52.530;7.320;2023-08-21T00:05:49;1.73;;;1.10;;
11064;SDS011;5585;52.530;7.320;2023-08-21T00:08:15;4.05;;;1.30;;
11064;SDS011;5585;52.530;7.320;2023-08-21T00:10:42;2.92;;;1.30;;
11064;SDS011;5585;52.530;7.320;2023-08-21T00:13:10;3.05;;;1.40;;
11064;SDS011;5585;52.530;7.320;2023-08-21T00:15:37;3.55;;;1.20;;
11064;SDS011;5585;52.530;7.320;2023-08-21T00:18:04;4.32;;;1.70;;
11064;SDS011;5585;52.530;7.320;2023-08-21T00:20:31;3.20;;;1.60;;
11064;SDS011;5585;52.530;7.320;2023-08-21T00:22:57;2.63;;;1.42;;
11064;SDS011;5585;52.530;7.320;2023-08-21T00:25:24;2.55;;;1.52;;
11064;SDS011;5585;52.530;7.320;2023-08-21T00:27:51;3.22;;;1.58;;
11064;SDS011;5585;52.530;7.320;2023-08-21T00:30:19;4.25;;;1.83;;
11064;SDS011;5585;52.530;7.320;2023-08-21T00:32:48;5.95;;;2.17;;
11064;SDS011;5585;52.530;7.320;2023-08-21T00:35:15;3.50;;;1.83;;
11064;SDS011;5585;52.530;7.320;2023-08-21T00:37:41;2.45;;;2.05;;
11064;SDS011;5585;52.530;7.320;2023-08-21T00:40:08;2.58;;;1.92;;
11064;SDS011;5585;52.530;7.320;2023-08-21T00:42:35;5.40;;;2.20;;
11064;SDS011;5585;52.530;7.320;2023-08-21T00:45:02;4.55;;;2.22;;
11064;SDS011;5585;52.530;7.320;2023-08-21T00:47:30;3.92;;;2.20;;
11064;SDS011;5585;52.530;7.320;2023-08-21T00:49:57;4.40;;;2.28;;
11064;SDS011;5585;52.530;7.320;2023-08-21T00:52:23;3.17;;;2.25;;
11064;SDS011;5585;52.530;7.320;2023-08-21T00:54:52;2.63;;;2.17;;
11064;SDS011;5585;52.530;7.320;2023-08-21T00:57:19;3.33;;;1.90;;
11064;SDS011;5585;52.530;7.320;2023-08-21T00:59:55;5.60;;;2.20;;
11064;SDS011;5585;52.530;7.320;2023-08-21T01:02:22;4.53;;;2.10;;
11064;SDS011;5585;52.530;7.320;2023-08-21T01:04:50;2.90;;;2.20;;
11064;SDS011;5585;52.530;7.320;2023-08-21T01:07:17;5.32;;;3.13;;
11064;SDS011;5585;52.530;7.320;2023-08-21T01:09:45;5.55;;;3.67;;
11064;SDS011;5585;52.530;7.320;2023-08-21T01:12:14;5.30;;;3.38;;
11064;SDS011;5585;52.530;7.320;2023-08-21T01:14:45;3.78;;;3.30;;
11064;SDS011;5585;52.530;7.320;2023-08-21T01:17:14;4.82;;;3.00;;
11064;SDS011;5585;52.530;7.320;2023-08-21T01:19:46;4.63;;;2.38;;
11064;SDS011;5585;52.530;7.320;2023-08-21T01:22:15;2.95;;;2.03;;
11064;SDS011;5585;52.530;7.320;2023-08-21T01:24:44;3.83;;;2.15;;
11064;SDS011;5585;52.530;7.320;2023-08-21T01:27:10;4.72;;;2.40;;
11064;SDS011;5585;52.530;7.320;2023-08-21T01:29:38;4.45;;;2.28;;
11064;SDS011;5585;52.530;7.320;2023-08-21T01:32:06;3.08;;;1.83;;
11064;SDS011;5585;52.530;7.320;2023-08-21T01:34:34;4.43;;;2.10;;
11064;SDS011;5585;52.530;7.320;2023-08-21T01:37:01;6.10;;;2.03;;
11064;SDS011;5585;52.530;7.320;2023-08-21T01:39:28;4.63;;;2.38;;
11064;SDS011;5585;52.530;7.320;2023-08-21T01:41:58;4.10;;;2.30;;
11064;SDS011;5585;52.530;7.320;2023-08-21T01:44:25;4.05;;;2.22;;
11064;SDS011;5585;52.530;7.320;2023-08-21T01:46:52;5.20;;;2.13;;
11064;SDS011;5585;52.530;7.320;2023-08-21T01:49:20;5.90;;;2.33;;
11064;SDS011;5585;52.530;7.320;2023-08-21T01:51:47;3.88;;;2.15;;
11064;SDS011;5585;52.530;7.320;2023-08-21T01:54:14;4.75;;;2.20;;
11064;SDS011;5585;52.530;7.320;2023-08-21T01:56:40;3.65;;;2.08;;
11064;SDS011;5585;52.530;7.320;2023-08-21T01:59:08;4.15;;;2.00;;
11064;SDS011;5585;52.530;7.320;2023-08-21T02:01:35;4.60;;;1.98;;
11064;SDS011;5585;52.530;7.320;2023-08-21T02:04:01;5.45;;;2.00;;
11064;SDS011;5585;52.530;7.320;2023-08-21T02:06:28;3.90;;;2.08;;
11064;SDS011;5585;52.530;7.320;2023-08-21T02:08:54;2.60;;;1.77;;
11064;SDS011;5585;52.530;7.320;2023-08-21T02:11:21;3.05;;;1.90;;
11064;SDS011;5585;52.530;7.320;2023-08-21T02:13:48;3.53;;;2.00;;
11064;SDS011;5585;52.530;7.320;2023-08-21T02:16:16;2.65;;;2.00;;
11064;SDS011;5585;52.530;7.320;2023-08-21T02:18:42;3.28;;;1.55;;
11064;SDS011;5585;52.530;7.320;2023-08-21T02:21:09;3.70;;;1.67;;
11064;SDS011;5585;52.530;7.320;2023-08-21T02:23:35;5.88;;;2.00;;
11064;SDS011;5585;52.530;7.320;2023-08-21T02:26:02;3.53;;;1.48;;
11064;SDS011;5585;52.530;7.320;2023-08-21T02:28:31;3.45;;;1.65;;
11064;SDS011;5585;52.530;7.320;2023-08-21T02:30:58;2.60;;;1.33;;
11064;SDS011;5585;52.530;7.320;2023-08-21T02:33:27;2.40;;;1.40;;
11064;SDS011;5585;52.530;7.320;2023-08-21T02:35:54;4.65;;;1.75;;
11064;SDS011;5585;52.530;7.320;2023-08-21T02:38:20;1.80;;;1.38;;
11064;SDS011;5585;52.530;7.320;2023-08-21T02:40:47;2.65;;;1.55;;
11064;SDS011;5585;52.530;7.320;2023-08-21T02:43:14;1.90;;;1.35;;
11064;SDS011;5585;52.530;7.320;2023-08-21T02:45:41;4.38;;;1.40;;
11064;SDS011;5585;52.530;7.320;2023-08-21T02:48:11;2.28;;;1.35;;
11064;SDS011;5585;52.530;7.320;2023-08-21T02:53:42;4.45;;;1.85;;
11064;SDS011;5585;52.530;7.320;2023-08-21T02:56:08;3.92;;;1.90;;
11064;SDS011;5585;52.530;7.320;2023-08-21T02:58:35;3.50;;;1.90;;
11064;SDS011;5585;52.530;7.320;2023-08-21T03:01:02;3.22;;;1.92;;
11064;SDS011;5585;52.530;7.320;2023-08-21T03:03:29;3.72;;;1.90;;
11064;SDS011;5585;52.530;7.320;2023-08-21T03:05:57;2.35;;;1.90;;
11064;SDS011;5585;52.530;7.320;2023-08-21T03:08:24;4.97;;;2.10;;
11064;SDS011;5585;52.530;7.320;2023-08-21T03:10:52;4.13;;;1.98;;
11064;SDS011;5585;52.530;7.320;2023-08-21T03:13:21;4.47;;;2.13;;
11064;SDS011;5585;52.530;7.320;2023-08-21T03:15:48;4.45;;;2.40;;
11064;SDS011;5585;52.530;7.320;2023-08-21T03:18:15;3.58;;;2.10;;
11064;SDS011;5585;52.530;7.320;2023-08-21T03:20:43;3.40;;;1.88;;
11064;SDS011;5585;52.530;7.320;2023-08-21T03:23:10;6.22;;;2.47;;
11064;SDS011;5585;52.530;7.320;2023-08-21T03:25:36;4.95;;;2.00;;
11064;SDS011;5585;52.530;7.320;2023-08-21T03:28:05;3.55;;;1.92;;
11064;SDS011;5585;52.530;7.320;2023-08-21T03:30:31;3.40;;;1.85;;
11064;SDS011;5585;52.530;7.320;2023-08-21T03:32:58;4.05;;;2.00;;
11064;SDS011;5585;52.530;7.320;2023-08-21T03:35:25;3.90;;;1.75;;
11064;SDS011;5585;52.530;7.320;2023-08-21T03:37:51;5.20;;;2.17;;
11064;SDS011;5585;52.530;7.320;2023-08-21T03:40:18;3.63;;;2.22;;
11064;SDS011;5585;52.530;7.320;2023-08-21T03:42:44;4.15;;;2.05;;
11064;SDS011;5585;52.530;7.320;2023-08-21T03:45:12;3.25;;;2.03;;
11064;SDS011;5585;52.530;7.320;2023-08-21T03:47:39;5.25;;;2.25;;
11064;SDS011;5585;52.530;7.320;2023-08-21T03:50:06;4.85;;;2.25;;
11064;SDS011;5585;52.530;7.320;2023-08-21T03:52:32;4.85;;;2.17;;
11064;SDS011;5585;52.530;7.320;2023-08-21T03:54:59;3.53;;;1.88;;
11064;SDS011;5585;52.530;7.320;2023-08-21T03:57:25;5.22;;;1.95;;
11064;SDS011;5585;52.530;7.320;2023-08-21T03:59:52;3.45;;;2.10;;
11064;SDS011;5585;52.530;7.320;2023-08-21T04:02:20;3.70;;;2.13;;
11064;SDS011;5585;52.530;7.320;2023-08-21T04:04:46;5.38;;;2.13;;
11064;SDS011;5585;52.530;7.320;2023-08-21T04:07:13;3.60;;;2.20;;
11064;SDS011;5585;52.530;7.320;2023-08-21T04:09:40;4.65;;;2.40;;
11064;SDS011;5585;52.530;7.320;2023-08-21T04:12:07;6.65;;;2.90;;
11064;SDS011;5585;52.530;7.320;2023-08-21T04:14:34;5.78;;;2.50;;
11064;SDS011;5585;52.530;7.320;2023-08-21T04:17:00;5.03;;;2.47;;
11064;SDS011;5585;52.530;7.320;2023-08-21T04:19:28;5.70;;;2.70;;
11064;SDS011;5585;52.530;7.320;2023-08-21T04:21:57;4.30;;;2.90;;
11064;SDS011;5585;52.530;7.320;2023-08-21T04:24:25;8.35;;;3.55;;
11064;SDS011;5585;52.530;7.320;2023-08-21T04:26:51;5.05;;;2.72;;
11064;SDS011;5585;52.530;7.320;2023-08-21T04:29:18;3.72;;;1.98;;
11064;SDS011;5585;52.530;7.320;2023-08-21T04:31:46;4.05;;;1.85;;
11064;SDS011;5585;52.530;7.320;2023-08-21T04:34:13;5.63;;;1.95;;
11064;SDS011;5585;52.530;7.320;2023-08-21T04:36:41;3.88;;;2.05;;
11064;SDS011;5585;52.530;7.320;2023-08-21T04:39:07;3.50;;;1.70;;
11064;SDS011;5585;52.530;7.320;2023-08-21T04:41:34;3.75;;;2.00;;
11064;SDS011;5585;52.530;7.320;2023-08-21T04:44:00;4.18;;;2.00;;
11064;SDS011;5585;52.530;7.320;2023-08-21T04:46:28;2.47;;;1.77;;
11064;SDS011;5585;52.530;7.320;2023-08-21T04:48:54;4.10;;;1.73;;
11064;SDS011;5585;52.530;7.320;2023-08-21T04:51:21;2.33;;;1.88;;
11064;SDS011;5585;52.530;7.320;2023-08-21T04:53:49;3.90;;;2.15;;
11064;SDS011;5585;52.530;7.320;2023-08-21T04:56:16;3.00;;;1.50;;
11064;SDS011;5585;52.530;7.320;2023-08-21T04:58:42;4.68;;;2.35;;
11064;SDS011;5585;52.530;7.320;2023-08-21T05:01:09;5.43;;;2.58;;
11064;SDS011;5585;52.530;7.320;2023-08-21T05:03:35;3.25;;;2.72;;
11064;SDS011;5585;52.530;7.320;2023-08-21T05:06:02;4.60;;;2.90;;
11064;SDS011;5585;52.530;7.320;2023-08-21T05:08:28;4.65;;;2.88;;
11064;SDS011;5585;52.530;7.320;2023-08-21T05:10:57;4.00;;;2.35;;
11064;SDS011;5585;52.530;7.320;2023-08-21T05:13:24;4.80;;;2.60;;
11064;SDS011;5585;52.530;7.320;2023-08-21T05:15:51;4.18;;;2.55;;
11064;SDS011;5585;52.530;7.320;2023-08-21T05:18:18;4.18;;;2.17;;
11064;SDS011;5585;52.530;7.320;2023-08-21T05:20:45;6.80;;;2.80;;
11064;SDS011;5585;52.530;7.320;2023-08-21T05:23:11;4.40;;;2.60;;
11064;SDS011;5585;52.530;7.320;2023-08-21T05:25:38;5.20;;;2.58;;
11064;SDS011;5585;52.530;7.320;2023-08-21T05:28:06;4.78;;;2.47;;
11064;SDS011;5585;52.530;7.320;2023-08-21T05:30:35;6.85;;;2.80;;
11064;SDS011;5585;52.530;7.320;2023-08-21T05:33:02;5.55;;;3.00;;
11064;SDS011;5585;52.530;7.320;2023-08-21T05:35:28;6.60;;;3.33;;
11064;SDS011;5585;52.530;7.320;2023-08-21T05:37:55;4.63;;;3.00;;
11064;SDS011;5585;52.530;7.320;2023-08-21T05:40:21;6.35;;;2.95;;
11064;SDS011;5585;52.530;7.320;2023-08-21T05:42:48;3.50;;;2.75;;
11064;SDS011;5585;52.530;7.320;2023-08-21T05:45:16;6.00;;;3.20;;
11064;SDS011;5585;52.530;7.320;2023-08-21T05:47:42;5.22;;;3.00;;
11064;SDS011;5585;52.530;7.320;2023-08-21T05:50:09;6.65;;;2.85;;
11064;SDS011;5585;52.530;7.320;2023-08-21T05:52:35;4.45;;;2.95;;
11064;SDS011;5585;52.530;7.320;2023-08-21T05:55:02;5.60;;;2.80;;
11064;SDS011;5585;52.530;7.320;2023-08-21T05:57:29;5.00;;;2.88;;
11064;SDS011;5585;52.530;7.320;2023-08-21T05:59:55;3.78;;;2.50;;
11064;SDS011;5585;52.530;7.320;2023-08-21T06:02:24;5.43;;;2.80;;
11064;SDS011;5585;52.530;7.320;2023-08-21T06:07:38;4.60;;;2.95;;
11064;SDS011;5585;52.530;7.320;2023-08-21T06:10:07;4.70;;;2.60;;
11064;SDS011;5585;52.530;7.320;2023-08-21T06:12:36;4.53;;;2.47;;
11064;SDS011;5585;52.530;7.320;2023-08-21T06:15:03;4.60;;;2.60;;
11064;SDS011;5585;52.530;7.320;2023-08-21T06:17:31;5.03;;;2.55;;
11064;SDS011;5585;52.530;7.320;2023-08-21T06:19:58;4.10;;;2.58;;
11064;SDS011;5585;52.530;7.320;2023-08-21T06:22:24;6.43;;;2.75;;
11064;SDS011;5585;52.530;7.320;2023-08-21T06:27:54;5.15;;;2.50;;
11064;SDS011;5585;52.530;7.320;2023-08-21T06:30:20;4.25;;;2.03;;
11064;SDS011;5585;52.530;7.320;2023-08-21T06:32:48;4.03;;;2.15;;
11064;SDS011;5585;52.530;7.320;2023-08-21T06:35:15;4.22;;;1.80;;
11064;SDS011;5585;52.530;7.320;2023-08-21T06:37:42;5.57;;;2.28;;
11064;SDS011;5585;52.530;7.320;2023-08-21T06:40:09;4.32;;;1.75;;
11064;SDS011;5585;52.530;7.320;2023-08-21T06:42:37;3.25;;;1.88;;
11064;SDS011;5585;52.530;7.320;2023-08-21T06:45:04;6.63;;;2.33;;
11064;SDS011;5585;52.530;7.320;2023-08-21T06:47:31;3.53;;;1.52;;
11064;SDS011;5585;52.530;7.320;2023-08-21T06:49:59;2.83;;;1.63;;
11064;SDS011;5585;52.530;7.320;2023-08-21T06:52:26;3.47;;;1.60;;
11064;SDS011;5585;52.530;7.320;2023-08-21T06:54:53;5.35;;;2.22;;
11064;SDS011;5585;52.530;7.320;2023-08-21T06:57:19;1.45;;;1.05;;
11064;SDS011;5585;52.530;7.320;2023-08-21T06:59:46;3.47;;;1.77;;
11064;SDS011;5585;52.530;7.320;2023-08-21T07:02:12;4.00;;;1.90;;
11064;SDS011;5585;52.530;7.320;2023-08-21T07:04:39;2.42;;;1.30;;
11064;SDS011;5585;52.530;7.320;2023-08-21T07:07:07;2.78;;;1.42;;
11064;SDS011;5585;52.530;7.320;2023-08-21T07:09:33;3.40;;;1.85;;
11064;SDS011;5585;52.530;7.320;2023-08-21T07:12:00;2.58;;;1.35;;
11064;SDS011;5585;52.530;7.320;2023-08-21T07:14:27;4.65;;;1.85;;
11064;SDS011;5585;52.530;7.320;2023-08-21T07:16:53;2.72;;;1.40;;
11064;SDS011;5585;52.530;7.320;2023-08-21T07:19:20;2.42;;;1.40;;
11064;SDS011;5585;52.530;7.320;2023-08-21T07:21:46;2.13;;;1.27;;
11064;SDS011;5585;52.530;7.320;2023-08-21T07:24:14;2.63;;;1.50;;
11064;SDS011;5585;52.530;7.320;2023-08-21T07:26:41;4.07;;;1.60;;
11064;SDS011;5585;52.530;7.320;2023-08-21T07:29:07;5.00;;;1.50;;
11064;SDS011;5585;52.530;7.320;2023-08-21T07:31:34;2.25;;;1.23;;
11064;SDS011;5585;52.530;7.320;2023-08-21T07:34:00;2.42;;;1.48;;
11064;SDS011;5585;52.530;7.320;2023-08-21T07:36:27;4.03;;;2.10;;
11064;SDS011;5585;52.530;7.320;2023-08-21T07:38:54;3.88;;;1.70;;
11064;SDS011;5585;52.530;7.320;2023-08-21T07:41:22;3.30;;;1.40;;
11064;SDS011;5585;52.530;7.320;2023-08-21T07:43:51;3.67;;;1.48;;
11064;SDS011;5585;52.530;7.320;2023-08-21T07:46:17;3.50;;;1.38;;
11064;SDS011;5585;52.530;7.320;2023-08-21T07:48:44;2.00;;;1.15;;
11064;SDS011;5585;52.530;7.320;2023-08-21T07:51:11;3.13;;;1.30;;
11064;SDS011;5585;52.530;7.320;2023-08-21T07:53:36;4.05;;;1.67;;
11064;SDS011;5585;52.530;7.320;2023-08-21T07:56:03;2.20;;;1.05;;
11064;SDS011;5585;52.530;7.320;2023-08-21T07:58:32;1.40;;;1.15;;
11064;SDS011;5585;52.530;7.320;2023-08-21T08:00:59;2.67;;;1.30;;
11064;SDS011;5585;52.530;7.320;2023-08-21T08:03:26;2.75;;;1.02;;
11064;SDS011;5585;52.530;7.320;2023-08-21T08:05:53;3.72;;;1.35;;
11064;SDS011;5585;52.530;7.320;2023-08-21T08:08:19;3.38;;;1.02;;
11064;SDS011;5585;52.530;7.320;2023-08-21T08:10:46;2.72;;;0.98;;
11064;SDS011;5585;52.530;7.320;2023-08-21T08:13:15;2.28;;;0.88;;
11064;SDS011;5585;52.530;7.320;2023-08-21T08:15:43;1.88;;;0.90;;
11064;SDS011;5585;52.530;7.320;2023-08-21T08:18:11;1.35;;;1.00;;
11064;SDS011;5585;52.530;7.320;2023-08-21T08:20:38;2.35;;;0.85;;
11064;SDS011;5585;52.530;7.320;2023-08-21T08:23:04;1.00;;;0.70;;
11064;SDS011;5585;52.530;7.320;2023-08-21T08:25:31;1.77;;;0.65;;
11064;SDS011;5585;52.530;7.320;2023-08-21T08:27:58;1.35;;;0.70;;
11064;SDS011;5585;52.530;7.320;2023-08-21T08:30:24;1.98;;;0.88;;
11064;SDS011;5585;52.530;7.320;2023-08-21T08:32:52;1.38;;;0.70;;
11064;SDS011;5585;52.530;7.320;2023-08-21T08:35:19;1.65;;;0.90;;
11064;SDS011;5585;52.530;7.320;2023-08-21T08:37:46;2.50;;;0.73;;
11064;SDS011;5585;52.530;7.320;2023-08-21T08:40:13;2.75;;;0.80;;
11064;SDS011;5585;52.530;7.320;2023-08-21T08:42:41;1.70;;;0.80;;
11064;SDS011;5585;52.530;7.320;2023-08-21T08:45:12;1.65;;;0.70;;
11064;SDS011;5585;52.530;7.320;2023-08-21T08:47:39;0.90;;;0.60;;
11064;SDS011;5585;52.530;7.320;2023-08-21T08:50:08;1.23;;;0.70;;
11064;SDS011;5585;52.530;7.320;2023-08-21T08:52:35;1.80;;;0.70;;
11064;SDS011;5585;52.530;7.320;2023-08-21T08:55:02;1.35;;;0.70;;
11064;SDS011;5585;52.530;7.320;2023-08-21T08:57:30;0.80;;;0.57;;
11064;SDS011;5585;52.530;7.320;2023-08-21T08:59:56;2.35;;;0.80;;
11064;SDS011;5585;52.530;7.320;2023-08-21T09:02:23;1.58;;;0.85;;
11064;SDS011;5585;52.530;7.320;2023-08-21T09:04:50;2.08;;;0.98;;
11064;SDS011;5585;52.530;7.320;2023-08-21T09:07:18;1.60;;;0.70;;
11064;SDS011;5585;52.530;7.320;2023-08-21T09:09:45;1.63;;;0.70;;
11064;SDS011;5585;52.530;7.320;2023-08-21T09:12:14;1.55;;;0.70;;
11064;SDS011;5585;52.530;7.320;2023-08-21T09:14:41;1.52;;;0.55;;
11064;SDS011;5585;52.530;7.320;2023-08-21T09:17:07;0.98;;;0.50;;
11064;SDS011;5585;52.530;7.320;2023-08-21T09:19:37;1.17;;;0.70;;
11064;SDS011;5585;52.530;7.320;2023-08-21T09:22:08;2.05;;;0.60;;
11064;SDS011;5585;52.530;7.320;2023-08-21T09:24:36;1.33;;;0.63;;
11064;SDS011;5585;52.530;7.320;2023-08-21T09:27:02;0.95;;;0.60;;
11064;SDS011;5585;52.530;7.320;2023-08-21T09:29:37;1.60;;;0.70;;
11064;SDS011;5585;52.530;7.320;2023-08-21T09:32:04;1.40;;;0.57;;
11064;SDS011;5585;52.530;7.320;2023-08-21T09:34:33;0.95;;;0.52;;
11064;SDS011;5585;52.530;7.320;2023-08-21T09:37:00;1.08;;;0.52;;
11064;SDS011;5585;52.530;7.320;2023-08-21T09:39:32;2.13;;;0.60;;
11064;SDS011;5585;52.530;7.320;2023-08-21T09:42:00;1.33;;;0.70;;
11064;SDS011;5585;52.530;7.320;2023-08-21T09:44:27;0.98;;;0.52;;
11064;SDS011;5585;52.530;7.320;2023-08-21T09:46:53;1.30;;;0.55;;
11064;SDS011;5585;52.530;7.320;2023-08-21T09:49:20;1.20;;;0.55;;
11064;SDS011;5585;52.530;7.320;2023-08-21T09:51:47;2.05;;;0.60;;
11064;SDS011;5585;52.530;7.320;2023-08-21T09:54:14;1.52;;;0.70;;
11064;SDS011;5585;52.530;7.320;2023-08-21T09:56:41;1.40;;;0.65;;
11064;SDS011;5585;52.530;7.320;2023-08-21T09:59:09;1.40;;;0.60;;
11064;SDS011;5585;52.530;7.320;2023-08-21T10:01:37;1.60;;;0.70;;
11064;SDS011;5585;52.530;7.320;2023-08-21T10:04:05;2.92;;;0.80;;
11064;SDS011;5585;52.530;7.320;2023-08-21T10:06:32;1.40;;;0.50;;
11064;SDS011;5585;52.530;7.320;2023-08-21T10:09:00;1.90;;;0.75;;
11064;SDS011;5585;52.530;7.320;2023-08-21T10:11:26;2.30;;;0.80;;
11064;SDS011;5585;52.530;7.320;2023-08-21T10:13:54;1.13;;;0.85;;
11064;SDS011;5585;52.530;7.320;2023-08-21T10:16:24;3.20;;;0.77;;
11064;SDS011;5585;52.530;7.320;2023-08-21T10:18:51;1.98;;;0.77;;
11064;SDS011;5585;52.530;7.320;2023-08-21T10:21:18;1.45;;;0.60;;
11064;SDS011;5585;52.530;7.320;2023-08-21T10:23:46;1.13;;;0.60;;
11064;SDS011;5585;52.530;7.320;2023-08-21T10:26:13;1.27;;;0.50;;
11064;SDS011;5585;52.530;7.320;2023-08-21T10:28:43;1.15;;;0.60;;
11064;SDS011;5585;52.530;7.320;2023-08-21T10:31:28;2.15;;;0.80;;
11064;SDS011;5585;52.530;7.320;2023-08-21T10:33:57;1.65;;;0.70;;
11064;SDS011;5585;52.530;7.320;2023-08-21T10:39:21;1.50;;;0.90;;
11064;SDS011;5585;52.530;7.320;2023-08-21T10:44:52;1.92;;;0.70;;
11064;SDS011;5585;52.530;7.320;2023-08-21T10:47:23;1.73;;;0.88;;
11064;SDS011;5585;52.530;7.320;2023-08-21T10:49:50;1.92;;;0.98;;
11064;SDS011;5585;52.530;7.320;2023-08-21T10:52:20;2.08;;;0.70;;
11064;SDS011;5585;52.530;7.320;2023-08-21T10:54:47;1.10;;;0.55;;
11064;SDS011;5585;52.530;7.320;2023-08-21T10:57:14;2.17;;;0.80;;
11064;SDS011;5585;52.530;7.320;2023-08-21T10:59:53;1.45;;;0.68;;
11064;SDS011;5585;52.530;7.320;2023-08-21T11:02:22;0.88;;;0.60;;
11064;SDS011;5585;52.530;7.320;2023-08-21T11:04:49;1.10;;;0.57;;
11064;SDS011;5585;52.530;7.320;2023-08-21T11:07:15;1.35;;;0.77;;
11064;SDS011;5585;52.530;7.320;2023-08-21T11:09:42;1.15;;;0.70;;
11064;SDS011;5585;52.530;7.320;2023-08-21T11:12:10;1.25;;;0.60;;
11064;SDS011;5585;52.530;7.320;2023-08-21T11:14:37;1.00;;;0.65;;
11064;SDS011;5585;52.530;7.320;2023-08-21T11:17:04;2.08;;;0.70;;
11064;SDS011;5585;52.530;7.320;2023-08-21T11:19:32;1.95;;;0.77;;
11064;SDS011;5585;52.530;7.320;2023-08-21T11:21:59;1.20;;;0.65;;
11064;SDS011;5585;52.530;7.320;2023-08-21T11:24:39;1.40;;;0.75;;
11064;SDS011;5585;52.530;7.320;2023-08-21T11:27:06;2.55;;;0.93;;
11064;SDS011;5585;52.530;7.320;2023-08-21T11:29:35;2.63;;;0.80;;
11064;SDS011;5585;52.530;7.320;2023-08-21T11:32:02;1.27;;;0.70;;
11064;SDS011;5585;52.530;7.320;2023-08-21T11:34:31;0.50;;;0.40;;
11064;SDS011;5585;52.530;7.320;2023-08-21T11:37:03;1.40;;;0.68;;
11064;SDS011;5585;52.530;7.320;2023-08-21T11:39:41;1.27;;;0.80;;
11064;SDS011;5585;52.530;7.320;2023-08-21T11:42:11;2.50;;;0.70;;
11064;SDS011;5585;52.530;7.320;2023-08-21T11:44:42;2.80;;;0.80;;
11064;SDS011;5585;52.530;7.320;2023-08-21T11:47:09;1.05;;;0.60;;
11064;SDS011;5585;52.530;7.320;2023-08-21T11:49:36;1.95;;;0.80;;
11064;SDS011;5585;52.530;7.320;2023-08-21T11:52:05;1.02;;;0.60;;
11064;SDS011;5585;52.530;7.320;2023-08-21T11:54:35;1.67;;;0.63;;
11064;SDS011;5585;52.530;7.320;2023-08-21T11:57:06;2.05;;;0.82;;
11064;SDS011;5585;52.530;7.320;2023-08-21T11:59:33;1.27;;;0.70;;
11064;SDS011;5585;52.530;7.320;2023-08-21T12:02:00;0.68;;;0.60;;
11064;SDS011;5585;52.530;7.320;2023-08-21T12:04:27;1.02;;;0.70;;
11064;SDS011;5585;52.530;7.320;2023-08-21T12:06:53;2.22;;;0.90;;
11064;SDS011;5585;52.530;7.320;2023-08-21T12:09:24;4.53;;;1.08;;
11064;SDS011;5585;52.530;7.320;2023-08-21T12:11:51;1.50;;;0.75;;
11064;SDS011;5585;52.530;7.320;2023-08-21T12:14:18;1.35;;;0.80;;
11064;SDS011;5585;52.530;7.320;2023-08-21T12:16:44;1.65;;;0.80;;
11064;SDS011;5585;52.530;7.320;2023-08-21T12:19:11;0.75;;;0.52;;
11064;SDS011;5585;52.530;7.320;2023-08-21T12:21:39;1.00;;;0.60;;
11064;SDS011;5585;52.530;7.320;2023-08-21T12:24:06;0.80;;;0.50;;
11064;SDS011;5585;52.530;7.320;2023-08-21T12:26:34;1.70;;;0.50;;
11064;SDS011;5585;52.530;7.320;2023-08-21T12:29:01;1.02;;;0.65;;
11064;SDS011;5585;52.530;7.320;2023-08-21T12:31:28;1.05;;;0.57;;
11064;SDS011;5585;52.530;7.320;2023-08-21T12:33:57;1.90;;;0.75;;
11064;SDS011;5585;52.530;7.320;2023-08-21T12:36:40;2.05;;;0.70;;
11064;SDS011;5585;52.530;7.320;2023-08-21T12:39:07;1.67;;;0.73;;
11064;SDS011;5585;52.530;7.320;2023-08-21T12:41:35;1.52;;;0.85;;
11064;SDS011;5585;52.530;7.320;2023-08-21T12:44:02;0.95;;;0.52;;
11064;SDS011;5585;52.530;7.320;2023-08-21T12:46:29;1.88;;;0.60;;
11064;SDS011;5585;52.530;7.320;2023-08-21T12:48:56;1.92;;;0.77;;
11064;SDS011;5585;52.530;7.320;2023-08-21T12:51:22;1.48;;;0.68;;
11064;SDS011;5585;52.530;7.320;2023-08-21T12:53:49;1.63;;;0.77;;
11064;SDS011;5585;52.530;7.320;2023-08-21T12:56:16;1.20;;;0.70;;
11064;SDS011;5585;52.530;7.320;2023-08-21T12:58:44;2.13;;;0.95;;
11064;SDS011;5585;52.530;7.320;2023-08-21T13:01:10;3.17;;;0.80;;
11064;SDS011;5585;52.530;7.320;2023-08-21T13:03:37;0.75;;;0.50;;
11064;SDS011;5585;52.530;7.320;2023-08-21T13:06:06;1.10;;;0.73;;
11064;SDS011;5585;52.530;7.320;2023-08-21T13:08:33;1.52;;;0.77;;
11064;SDS011;5585;52.530;7.320;2023-08-21T13:11:00;1.92;;;0.93;;
11064;SDS011;5585;52.530;7.320;2023-08-21T13:13:28;0.70;;;0.50;;
11064;SDS011;5585;52.530;7.320;2023-08-21T13:15:56;0.65;;;0.40;;
11064;SDS011;5585;52.530;7.320;2023-08-21T13:18:22;1.02;;;0.63;;
11064;SDS011;5585;52.530;7.320;2023-08-21T13:20:49;1.10;;;0.60;;
11064;SDS011;5585;52.530;7.320;2023-08-21T13:23:15;1.55;;;0.70;;
11064;SDS011;5585;52.530;7.320;2023-08-21T13:25:42;0.90;;;0.45;;
11064;SDS011;5585;52.530;7.320;2023-08-21T13:28:09;0.98;;;0.40;;
11064;SDS011;5585;52.530;7.320;2023-08-21T13:30:36;1.45;;;0.60;;
11064;SDS011;5585;52.530;7.320;2023-08-21T13:33:04;1.10;;;0.50;;
11064;SDS011;5585;52.530;7.320;2023-08-21T13:35:31;1.42;;;0.73;;
11064;SDS011;5585;52.530;7.320;2023-08-21T13:37:58;1.60;;;0.52;;
11064;SDS011;5585;52.530;7.320;2023-08-21T13:40:25;0.95;;;0.50;;
11064;SDS011;5585;52.530;7.320;2023-08-21T13:42:51;1.13;;;0.60;;
11064;SDS011;5585;52.530;7.320;2023-08-21T13:45:18;1.38;;;0.60;;
11064;SDS011;5585;52.530;7.320;2023-08-21T13:47:45;1.02;;;0.70;;
11064;SDS011;5585;52.530;7.320;2023-08-21T13:50:14;1.45;;;0.70;;
11064;SDS011;5585;52.530;7.320;2023-08-21T13:52:41;1.92;;;0.70;;
11064;SDS011;5585;52.530;7.320;2023-08-21T13:55:08;1.10;;;0.70;;
11064;SDS011;5585;52.530;7.320;2023-08-21T13:57:35;1.60;;;0.82;;
11064;SDS011;5585;52.530;7.320;2023-08-21T14:00:02;1.25;;;0.63;;
11064;SDS011;5585;52.530;7.320;2023-08-21T14:02:32;1.20;;;0.60;;
11064;SDS011;5585;52.530;7.320;2023-08-21T14:04:58;2.08;;;0.60;;
11064;SDS011;5585;52.530;7.320;2023-08-21T14:07:26;0.65;;;0.60;;
11064;SDS011;5585;52.530;7.320;2023-08-21T14:09:53;0.82;;;0.50;;
11064;SDS011;5585;52.530;7.320;2023-08-21T14:12:19;0.95;;;0.65;;
11064;SDS011;5585;52.530;7.320;2023-08-21T14:14:46;1.08;;;0.60;;
11064;SDS011;5585;52.530;7.320;2023-08-21T14:17:12;1.63;;;0.85;;
11064;SDS011;5585;52.530;7.320;2023-08-21T14:19:39;0.70;;;0.63;;
11064;SDS011;5585;52.530;7.320;2023-08-21T14:22:05;1.00;;;0.80;;
11064;SDS011;5585;52.530;7.320;2023-08-21T14:24:35;2.28;;;0.82;;
11064;SDS011;5585;52.530;7.320;2023-08-21T14:27:01;2.55;;;1.13;;
11064;SDS011;5585;52.530;7.320;2023-08-21T14:29:28;1.65;;;1.05;;
11064;SDS011;5585;52.530;7.320;2023-08-21T14:31:57;3.15;;;0.80;;
11064;SDS011;5585;52.530;7.320;2023-08-21T14:34:25;1.58;;;0.70;;
11064;SDS011;5585;52.530;7.320;2023-08-21T14:36:51;1.00;;;0.70;;
11064;SDS011;5585;52.530;7.320;2023-08-21T14:39:19;3.13;;;0.75;;
11064;SDS011;5585;52.530;7.320;2023-08-21T14:41:52;1.65;;;0.80;;
11064;SDS011;5585;52.530;7.320;2023-08-21T14:44:19;1.45;;;0.80;;
11064;SDS011;5585;52.530;7.320;2023-08-21T14:46:45;3.08;;;0.80;;
11064;SDS011;5585;52.530;7.320;2023-08-21T14:49:12;2.47;;;0.95;;
11064;SDS011;5585;52.530;7.320;2023-08-21T14:51:39;3.25;;;1.08;;
11064;SDS011;5585;52.530;7.320;2023-08-21T14:54:06;2.55;;;1.10;;
11064;SDS011;5585;52.530;7.320;2023-08-21T14:56:33;2.55;;;1.13;;
11064;SDS011;5585;52.530;7.320;2023-08-21T14:59:01;2.25;;;0.90;;
11064;SDS011;5585;52.530;7.320;2023-08-21T15:01:28;3.22;;;2.88;;
11064;SDS011;5585;52.530;7.320;2023-08-21T15:03:55;4.60;;;3.05;;
11064;SDS011;5585;52.530;7.320;2023-08-21T15:06:21;2.53;;;1.40;;
11064;SDS011;5585;52.530;7.320;2023-08-21T15:08:48;3.00;;;0.90;;
11064;SDS011;5585;52.530;7.320;2023-08-21T15:11:15;2.65;;;0.95;;
11064;SDS011;5585;52.530;7.320;2023-08-21T15:13:41;3.22;;;1.10;;
11064;SDS011;5585;52.530;7.320;2023-08-21T15:16:09;1.85;;;0.88;;